sensor_id;sensor_type;location;lat;lon;timestamp;temperature;humidity
12700;DHT22;6414;49.570;6.060;2023-06-14T00:00:23;16.80;99.90
12700;DHT22;6414;49.570;6.060;2023-06-14T00:03:10;16.70;99.90
12700;DHT22;6414;49.570;6.060;2023-06-14T00:05:55;16.30;99.90
12700;DHT22;6414;49.570;6.060;2023-06-14T00:08:41;16.20;99.90
12700;DHT22;6414;49.570;6.060;2023-06-14T00:11:28;16.30;99.90
12700;DHT22;6414;49.570;6.060;2023-06-14T00:14:14;16.40;99.90
12700;DHT22;6414;49.570;6.060;2023-06-14T00:17:00;16.40;99.90
12700;DHT22;6414;49.570;6.060;2023-06-14T00:19:46;16.40;99.90
12700;DHT22;6414;49.570;6.060;2023-06-14T00:22:32;16.40;99.90
12700;DHT22;6414;49.570;6.060;2023-06-14T00:25:19;16.20;99.90
12700;DHT22;6414;49.570;6.060;2023-06-14T00:28:05;16.20;99.90
12700;DHT22;6414;49.570;6.060;2023-06-14T00:30:51;16.20;99.90
12700;DHT22;6414;49.570;6.060;2023-06-14T00:33:37;16.20;99.90
12700;DHT22;6414;49.570;6.060;2023-06-14T00:36:23;16.20;99.90
12700;DHT22;6414;49.570;6.060;2023-06-14T00:39:09;16.00;99.90
12700;DHT22;6414;49.570;6.060;2023-06-14T00:41:55;15.80;1.00
12700;DHT22;6414;49.570;6.060;2023-06-14T00:44:42;15.90;1.00
12700;DHT22;6414;49.570;6.060;2023-06-14T00:47:28;15.90;1.00
12700;DHT22;6414;49.570;6.060;2023-06-14T00:50:14;15.80;1.00
12700;DHT22;6414;49.570;6.060;2023-06-14T00:53:00;15.80;1.00
12700;DHT22;6414;49.570;6.060;2023-06-14T00:55:46;15.80;1.00
12700;DHT22;6414;49.570;6.060;2023-06-14T00:58:32;15.80;1.00
12700;DHT22;6414;49.570;6.060;2023-06-14T01:01:18;15.70;1.00
12700;DHT22;6414;49.570;6.060;2023-06-14T01:04:03;15.60;1.00
12700;DHT22;6414;49.570;6.060;2023-06-14T01:06:52;15.60;1.00
12700;DHT22;6414;49.570;6.060;2023-06-14T01:10:17;15.40;1.00
12700;DHT22;6414;49.570;6.060;2023-06-14T01:13:01;15.40;1.00
12700;DHT22;6414;49.570;6.060;2023-06-14T01:15:45;14.90;99.90
12700;DHT22;6414;49.570;6.060;2023-06-14T01:18:31;14.90;99.90
12700;DHT22;6414;49.570;6.060;2023-06-14T01:21:22;14.70;1.00
12700;DHT22;6414;49.570;6.060;2023-06-14T01:24:08;14.70;1.00
12700;DHT22;6414;49.570;6.060;2023-06-14T01:26:53;14.90;99.90
12700;DHT22;6414;49.570;6.060;2023-06-14T01:29:39;14.80;99.90
12700;DHT22;6414;49.570;6.060;2023-06-14T01:32:25;14.60;1.00
12700;DHT22;6414;49.570;6.060;2023-06-14T01:35:11;14.40;1.00
12700;DHT22;6414;49.570;6.060;2023-06-14T01:37:57;14.40;1.00
12700;DHT22;6414;49.570;6.060;2023-06-14T01:40:43;14.50;1.00
12700;DHT22;6414;49.570;6.060;2023-06-14T01:43:32;14.40;1.00
12700;DHT22;6414;49.570;6.060;2023-06-14T01:46:18;14.40;1.00
12700;DHT22;6414;49.570;6.060;2023-06-14T01:49:04;14.60;1.00
12700;DHT22;6414;49.570;6.060;2023-06-14T01:51:51;14.60;1.00
12700;DHT22;6414;49.570;6.060;2023-06-14T01:54:37;14.60;1.00
12700;DHT22;6414;49.570;6.060;2023-06-14T01:57:26;14.40;1.00
12700;DHT22;6414;49.570;6.060;2023-06-14T02:00:13;14.40;1.00
12700;DHT22;6414;49.570;6.060;2023-06-14T02:02:58;14.20;1.00
12700;DHT22;6414;49.570;6.060;2023-06-14T02:05:44;14.20;42.90
12700;DHT22;6414;49.570;6.060;2023-06-14T02:08:32;14.10;99.90
12700;DHT22;6414;49.570;6.060;2023-06-14T02:11:18;14.10;99.90
12700;DHT22;6414;49.570;6.060;2023-06-14T02:14:04;14.00;1.00
12700;DHT22;6414;49.570;6.060;2023-06-14T02:16:51;14.00;1.00
12700;DHT22;6414;49.570;6.060;2023-06-14T02:19:37;14.00;1.00
12700;DHT22;6414;49.570;6.060;2023-06-14T02:22:22;13.90;1.00
12700;DHT22;6414;49.570;6.060;2023-06-14T02:25:10;13.70;1.00
12700;DHT22;6414;49.570;6.060;2023-06-14T02:27:57;13.60;99.90
12700;DHT22;6414;49.570;6.060;2023-06-14T02:30:42;13.60;99.90
12700;DHT22;6414;49.570;6.060;2023-06-14T02:33:29;13.70;99.90
12700;DHT22;6414;49.570;6.060;2023-06-14T02:36:15;13.70;1.00
12700;DHT22;6414;49.570;6.060;2023-06-14T02:39:01;13.60;1.00
12700;DHT22;6414;49.570;6.060;2023-06-14T02:41:48;13.70;1.00
12700;DHT22;6414;49.570;6.060;2023-06-14T02:44:34;13.80;99.90
12700;DHT22;6414;49.570;6.060;2023-06-14T02:47:21;13.80;99.90
12700;DHT22;6414;49.570;6.060;2023-06-14T02:50:08;13.60;1.00
12700;DHT22;6414;49.570;6.060;2023-06-14T02:52:54;13.60;1.00
12700;DHT22;6414;49.570;6.060;2023-06-14T02:55:41;13.40;1.00
12700;DHT22;6414;49.570;6.060;2023-06-14T02:58:27;13.40;1.00
12700;DHT22;6414;49.570;6.060;2023-06-14T03:01:13;13.40;1.00
12700;DHT22;6414;49.570;6.060;2023-06-14T03:03:59;13.40;1.00
12700;DHT22;6414;49.570;6.060;2023-06-14T03:06:45;13.50;1.00
12700;DHT22;6414;49.570;6.060;2023-06-14T03:09:31;13.60;1.00
12700;DHT22;6414;49.570;6.060;2023-06-14T03:12:17;13.60;1.00
12700;DHT22;6414;49.570;6.060;2023-06-14T03:15:03;13.60;99.90
12700;DHT22;6414;49.570;6.060;2023-06-14T03:17:49;13.60;1.00
12700;DHT22;6414;49.570;6.060;2023-06-14T03:20:35;13.50;99.90
12700;DHT22;6414;49.570;6.060;2023-06-14T03:23:23;13.50;1.00
12700;DHT22;6414;49.570;6.060;2023-06-14T03:26:09;13.50;1.00
12700;DHT22;6414;49.570;6.060;2023-06-14T03:28:56;13.50;1.00
12700;DHT22;6414;49.570;6.060;2023-06-14T03:31:55;13.50;1.00
12700;DHT22;6414;49.570;6.060;2023-06-14T03:34:28;13.50;1.00
12700;DHT22;6414;49.570;6.060;2023-06-14T03:37:15;13.30;1.00
12700;DHT22;6414;49.570;6.060;2023-06-14T03:40:02;13.40;1.00
12700;DHT22;6414;49.570;6.060;2023-06-14T03:42:49;13.30;1.00
12700;DHT22;6414;49.570;6.060;2023-06-14T03:45:35;13.30;1.00
12700;DHT22;6414;49.570;6.060;2023-06-14T03:48:21;13.30;28.50
12700;DHT22;6414;49.570;6.060;2023-06-14T03:51:08;13.30;99.90
12700;DHT22;6414;49.570;6.060;2023-06-14T03:53:54;13.30;99.90
12700;DHT22;6414;49.570;6.060;2023-06-14T03:56:40;13.20;99.90
12700;DHT22;6414;49.570;6.060;2023-06-14T03:59:27;13.30;99.90
12700;DHT22;6414;49.570;6.060;2023-06-14T04:02:13;13.30;99.90
12700;DHT22;6414;49.570;6.060;2023-06-14T04:05:03;13.30;99.90
12700;DHT22;6414;49.570;6.060;2023-06-14T04:07:49;13.30;99.90
12700;DHT22;6414;49.570;6.060;2023-06-14T04:10:35;13.40;99.90
12700;DHT22;6414;49.570;6.060;2023-06-14T04:13:21;13.40;99.90
12700;DHT22;6414;49.570;6.060;2023-06-14T04:16:07;13.40;1.00
12700;DHT22;6414;49.570;6.060;2023-06-14T04:18:56;13.30;1.00
12700;DHT22;6414;49.570;6.060;2023-06-14T04:21:42;13.30;1.00
12700;DHT22;6414;49.570;6.060;2023-06-14T04:24:29;13.30;1.00
12700;DHT22;6414;49.570;6.060;2023-06-14T04:27:15;13.30;1.00
12700;DHT22;6414;49.570;6.060;2023-06-14T04:30:02;13.30;1.00
12700;DHT22;6414;49.570;6.060;2023-06-14T04:32:49;13.30;1.00
12700;DHT22;6414;49.570;6.060;2023-06-14T04:35:35;13.30;1.00
12700;DHT22;6414;49.570;6.060;2023-06-14T04:38:22;13.30;1.00
12700;DHT22;6414;49.570;6.060;2023-06-14T04:41:10;13.40;1.00
12700;DHT22;6414;49.570;6.060;2023-06-14T04:43:57;13.40;1.00
12700;DHT22;6414;49.570;6.060;2023-06-14T04:46:43;13.60;1.00
12700;DHT22;6414;49.570;6.060;2023-06-14T04:49:29;13.50;1.00
12700;DHT22;6414;49.570;6.060;2023-06-14T04:52:15;13.50;1.00
12700;DHT22;6414;49.570;6.060;2023-06-14T04:55:01;13.60;2.00
12700;DHT22;6414;49.570;6.060;2023-06-14T04:57:47;13.80;1.00
12700;DHT22;6414;49.570;6.060;2023-06-14T05:00:33;13.70;1.00
12700;DHT22;6414;49.570;6.060;2023-06-14T05:03:19;13.80;79.70
12700;DHT22;6414;49.570;6.060;2023-06-14T05:06:06;13.80;99.90
12700;DHT22;6414;49.570;6.060;2023-06-14T05:08:52;13.90;99.90
12700;DHT22;6414;49.570;6.060;2023-06-14T05:11:38;14.00;99.90
12700;DHT22;6414;49.570;6.060;2023-06-14T05:14:24;14.20;99.90
12700;DHT22;6414;49.570;6.060;2023-06-14T05:17:11;14.40;99.90
12700;DHT22;6414;49.570;6.060;2023-06-14T05:19:57;14.40;99.90
12700;DHT22;6414;49.570;6.060;2023-06-14T05:22:43;14.60;99.90
12700;DHT22;6414;49.570;6.060;2023-06-14T05:25:29;14.70;99.90
12700;DHT22;6414;49.570;6.060;2023-06-14T05:28:15;14.80;99.90
12700;DHT22;6414;49.570;6.060;2023-06-14T05:31:02;15.10;58.10
12700;DHT22;6414;49.570;6.060;2023-06-14T05:33:48;15.20;11.60
12700;DHT22;6414;49.570;6.060;2023-06-14T05:36:34;15.20;6.50
12700;DHT22;6414;49.570;6.060;2023-06-14T05:39:20;15.40;48.70
12700;DHT22;6414;49.570;6.060;2023-06-14T05:42:06;15.50;19.70
12700;DHT22;6414;49.570;6.060;2023-06-14T05:44:52;15.60;1.00
12700;DHT22;6414;49.570;6.060;2023-06-14T05:47:40;15.80;1.00
12700;DHT22;6414;49.570;6.060;2023-06-14T05:50:26;15.80;1.00
12700;DHT22;6414;49.570;6.060;2023-06-14T05:53:12;15.90;1.00
12700;DHT22;6414;49.570;6.060;2023-06-14T05:55:59;16.20;1.00
12700;DHT22;6414;49.570;6.060;2023-06-14T05:58:45;16.20;1.00
12700;DHT22;6414;49.570;6.060;2023-06-14T06:01:32;16.40;1.00
12700;DHT22;6414;49.570;6.060;2023-06-14T06:04:19;16.50;8.70
12700;DHT22;6414;49.570;6.060;2023-06-14T06:07:05;16.50;3.70
12700;DHT22;6414;49.570;6.060;2023-06-14T06:09:51;16.60;1.00
12700;DHT22;6414;49.570;6.060;2023-06-14T06:12:38;16.80;1.00
12700;DHT22;6414;49.570;6.060;2023-06-14T06:15:25;16.90;1.00
12700;DHT22;6414;49.570;6.060;2023-06-14T06:18:11;16.90;1.00
12700;DHT22;6414;49.570;6.060;2023-06-14T06:20:57;17.00;1.00
12700;DHT22;6414;49.570;6.060;2023-06-14T06:23:43;17.30;99.90
12700;DHT22;6414;49.570;6.060;2023-06-14T06:28:14;17.40;1.00
12700;DHT22;6414;49.570;6.060;2023-06-14T06:31:01;17.40;1.00
12700;DHT22;6414;49.570;6.060;2023-06-14T06:33:48;17.70;99.90
12700;DHT22;6414;49.570;6.060;2023-06-14T06:36:34;17.60;99.90
12700;DHT22;6414;49.570;6.060;2023-06-14T06:39:20;17.80;99.90
12700;DHT22;6414;49.570;6.060;2023-06-14T06:42:06;18.00;1.00
12700;DHT22;6414;49.570;6.060;2023-06-14T06:44:52;18.00;99.90
12700;DHT22;6414;49.570;6.060;2023-06-14T06:47:39;18.00;1.00
12700;DHT22;6414;49.570;6.060;2023-06-14T06:50:25;18.20;1.00
12700;DHT22;6414;49.570;6.060;2023-06-14T06:53:11;18.30;1.00
12700;DHT22;6414;49.570;6.060;2023-06-14T06:55:56;18.30;1.00
12700;DHT22;6414;49.570;6.060;2023-06-14T06:58:42;18.40;1.00
12700;DHT22;6414;49.570;6.060;2023-06-14T07:01:29;18.50;1.00
12700;DHT22;6414;49.570;6.060;2023-06-14T07:04:15;18.40;99.90
12700;DHT22;6414;49.570;6.060;2023-06-14T07:07:02;18.60;99.90
12700;DHT22;6414;49.570;6.060;2023-06-14T07:09:47;18.60;99.90
12700;DHT22;6414;49.570;6.060;2023-06-14T07:12:34;18.70;99.90
12700;DHT22;6414;49.570;6.060;2023-06-14T07:15:20;18.80;99.90
12700;DHT22;6414;49.570;6.060;2023-06-14T07:18:06;18.80;99.90
12700;DHT22;6414;49.570;6.060;2023-06-14T07:20:52;19.10;1.00
12700;DHT22;6414;49.570;6.060;2023-06-14T07:23:38;19.00;99.90
12700;DHT22;6414;49.570;6.060;2023-06-14T07:26:24;19.10;99.90
12700;DHT22;6414;49.570;6.060;2023-06-14T07:29:10;19.20;99.90
12700;DHT22;6414;49.570;6.060;2023-06-14T07:31:56;19.40;99.90
12700;DHT22;6414;49.570;6.060;2023-06-14T07:34:43;19.70;97.40
12700;DHT22;6414;49.570;6.060;2023-06-14T07:37:29;19.70;97.00
12700;DHT22;6414;49.570;6.060;2023-06-14T07:40:16;19.90;20.70
12700;DHT22;6414;49.570;6.060;2023-06-14T07:43:02;19.90;20.50
12700;DHT22;6414;49.570;6.060;2023-06-14T07:45:48;20.00;1.00
12700;DHT22;6414;49.570;6.060;2023-06-14T07:48:34;20.30;99.90
12700;DHT22;6414;49.570;6.060;2023-06-14T07:51:20;20.30;99.90
12700;DHT22;6414;49.570;6.060;2023-06-14T07:54:07;20.10;1.00
12700;DHT22;6414;49.570;6.060;2023-06-14T07:56:53;20.10;1.00
12700;DHT22;6414;49.570;6.060;2023-06-14T07:59:39;20.50;1.00
12700;DHT22;6414;49.570;6.060;2023-06-14T08:02:25;20.60;1.00
12700;DHT22;6414;49.570;6.060;2023-06-14T08:05:11;20.60;1.00
12700;DHT22;6414;49.570;6.060;2023-06-14T08:07:57;20.90;1.00
12700;DHT22;6414;49.570;6.060;2023-06-14T08:10:43;20.80;1.00
12700;DHT22;6414;49.570;6.060;2023-06-14T08:13:29;20.90;1.00
12700;DHT22;6414;49.570;6.060;2023-06-14T08:16:14;20.90;1.00
12700;DHT22;6414;49.570;6.060;2023-06-14T08:19:01;21.10;1.00
12700;DHT22;6414;49.570;6.060;2023-06-14T08:21:47;21.40;1.00
12700;DHT22;6414;49.570;6.060;2023-06-14T08:24:34;21.70;1.00
12700;DHT22;6414;49.570;6.060;2023-06-14T08:27:20;21.70;1.00
12700;DHT22;6414;49.570;6.060;2023-06-14T08:30:06;21.70;1.00
12700;DHT22;6414;49.570;6.060;2023-06-14T08:32:53;21.70;1.00
12700;DHT22;6414;49.570;6.060;2023-06-14T08:35:38;21.70;1.00
12700;DHT22;6414;49.570;6.060;2023-06-14T08:38:25;22.00;1.00
12700;DHT22;6414;49.570;6.060;2023-06-14T08:41:12;22.00;1.00
12700;DHT22;6414;49.570;6.060;2023-06-14T08:43:58;22.00;1.00
12700;DHT22;6414;49.570;6.060;2023-06-14T08:46:44;22.30;1.00
12700;DHT22;6414;49.570;6.060;2023-06-14T08:49:31;22.40;1.00
12700;DHT22;6414;49.570;6.060;2023-06-14T08:52:16;22.40;1.00
12700;DHT22;6414;49.570;6.060;2023-06-14T08:55:02;22.30;1.00
12700;DHT22;6414;49.570;6.060;2023-06-14T08:57:48;22.40;1.00
12700;DHT22;6414;49.570;6.060;2023-06-14T09:00:34;22.80;1.00
12700;DHT22;6414;49.570;6.060;2023-06-14T09:03:21;23.20;1.00
12700;DHT22;6414;49.570;6.060;2023-06-14T09:06:08;23.30;1.00
12700;DHT22;6414;49.570;6.060;2023-06-14T09:08:56;23.30;1.00
12700;DHT22;6414;49.570;6.060;2023-06-14T09:11:43;23.60;1.00
12700;DHT22;6414;49.570;6.060;2023-06-14T09:14:29;23.70;1.00
12700;DHT22;6414;49.570;6.060;2023-06-14T09:17:16;24.40;1.00
12700;DHT22;6414;49.570;6.060;2023-06-14T09:20:02;25.10;1.00
12700;DHT22;6414;49.570;6.060;2023-06-14T09:22:48;25.10;1.00
12700;DHT22;6414;49.570;6.060;2023-06-14T09:25:45;25.10;1.00
12700;DHT22;6414;49.570;6.060;2023-06-14T09:28:29;24.80;1.00
12700;DHT22;6414;49.570;6.060;2023-06-14T09:31:16;25.40;1.00
12700;DHT22;6414;49.570;6.060;2023-06-14T09:34:02;24.60;1.00
12700;DHT22;6414;49.570;6.060;2023-06-14T09:36:49;24.60;1.00
12700;DHT22;6414;49.570;6.060;2023-06-14T09:39:35;24.60;1.00
12700;DHT22;6414;49.570;6.060;2023-06-14T09:42:21;25.40;1.00
12700;DHT22;6414;49.570;6.060;2023-06-14T09:45:08;25.10;1.00
12700;DHT22;6414;49.570;6.060;2023-06-14T09:47:53;25.10;1.00
12700;DHT22;6414;49.570;6.060;2023-06-14T09:50:40;25.10;1.00
12700;DHT22;6414;49.570;6.060;2023-06-14T09:53:26;25.80;1.00
12700;DHT22;6414;49.570;6.060;2023-06-14T09:56:13;25.80;1.00
12700;DHT22;6414;49.570;6.060;2023-06-14T09:58:59;25.90;1.00
12700;DHT22;6414;49.570;6.060;2023-06-14T10:01:45;25.80;1.00
12700;DHT22;6414;49.570;6.060;2023-06-14T10:04:32;25.60;1.00
12700;DHT22;6414;49.570;6.060;2023-06-14T10:07:19;26.10;1.00
12700;DHT22;6414;49.570;6.060;2023-06-14T10:10:05;26.20;1.00
12700;DHT22;6414;49.570;6.060;2023-06-14T10:12:51;26.20;1.00
12700;DHT22;6414;49.570;6.060;2023-06-14T10:16:00;26.80;1.00
12700;DHT22;6414;49.570;6.060;2023-06-14T10:18:51;26.70;1.00
12700;DHT22;6414;49.570;6.060;2023-06-14T10:22:01;27.00;1.00
12700;DHT22;6414;49.570;6.060;2023-06-14T10:24:44;26.50;1.00
12700;DHT22;6414;49.570;6.060;2023-06-14T10:27:30;27.10;1.00
12700;DHT22;6414;49.570;6.060;2023-06-14T10:30:16;26.60;1.00
12700;DHT22;6414;49.570;6.060;2023-06-14T10:33:08;27.10;1.00
12700;DHT22;6414;49.570;6.060;2023-06-14T10:39:27;26.80;1.00
12700;DHT22;6414;49.570;6.060;2023-06-14T10:41:57;26.70;1.00
12700;DHT22;6414;49.570;6.060;2023-06-14T10:44:50;26.70;1.00
12700;DHT22;6414;49.570;6.060;2023-06-14T10:47:36;26.70;1.00
12700;DHT22;6414;49.570;6.060;2023-06-14T10:50:27;26.20;1.00
12700;DHT22;6414;49.570;6.060;2023-06-14T10:53:23;25.90;1.00
12700;DHT22;6414;49.570;6.060;2023-06-14T10:56:22;25.30;1.00
12700;DHT22;6414;49.570;6.060;2023-06-14T10:58:59;25.30;1.00
12700;DHT22;6414;49.570;6.060;2023-06-14T11:04:50;25.20;1.00
12700;DHT22;6414;49.570;6.060;2023-06-14T11:07:58;25.20;1.00
12700;DHT22;6414;49.570;6.060;2023-06-14T11:10:41;25.00;1.00
12700;DHT22;6414;49.570;6.060;2023-06-14T11:13:27;25.10;1.00
12700;DHT22;6414;49.570;6.060;2023-06-14T11:16:14;24.70;1.00
12700;DHT22;6414;49.570;6.060;2023-06-14T11:19:00;25.10;1.00
12700;DHT22;6414;49.570;6.060;2023-06-14T11:21:49;25.10;1.00
12700;DHT22;6414;49.570;6.060;2023-06-14T11:24:35;24.80;1.00
12700;DHT22;6414;49.570;6.060;2023-06-14T11:27:22;24.40;1.00
12700;DHT22;6414;49.570;6.060;2023-06-14T11:30:08;24.50;1.00
12700;DHT22;6414;49.570;6.060;2023-06-14T11:32:54;24.60;1.00
12700;DHT22;6414;49.570;6.060;2023-06-14T11:35:40;24.20;1.00
12700;DHT22;6414;49.570;6.060;2023-06-14T11:38:26;24.40;1.00
12700;DHT22;6414;49.570;6.060;2023-06-14T11:41:12;24.60;1.00
12700;DHT22;6414;49.570;6.060;2023-06-14T11:43:59;24.70;1.00
12700;DHT22;6414;49.570;6.060;2023-06-14T11:46:45;24.50;1.00
12700;DHT22;6414;49.570;6.060;2023-06-14T11:49:34;24.40;1.00
12700;DHT22;6414;49.570;6.060;2023-06-14T11:52:17;23.90;1.00
12700;DHT22;6414;49.570;6.060;2023-06-14T11:55:04;24.10;1.00
12700;DHT22;6414;49.570;6.060;2023-06-14T11:57:50;24.10;1.00
12700;DHT22;6414;49.570;6.060;2023-06-14T12:00:36;24.50;1.00
12700;DHT22;6414;49.570;6.060;2023-06-14T12:03:23;24.60;1.00
12700;DHT22;6414;49.570;6.060;2023-06-14T12:06:08;25.00;1.00
12700;DHT22;6414;49.570;6.060;2023-06-14T12:08:57;25.00;1.00
12700;DHT22;6414;49.570;6.060;2023-06-14T12:11:44;24.30;1.00
12700;DHT22;6414;49.570;6.060;2023-06-14T12:14:31;24.60;1.00
12700;DHT22;6414;49.570;6.060;2023-06-14T12:17:17;24.60;1.00
12700;DHT22;6414;49.570;6.060;2023-06-14T12:20:06;24.40;1.00
12700;DHT22;6414;49.570;6.060;2023-06-14T12:22:52;24.20;1.00
12700;DHT22;6414;49.570;6.060;2023-06-14T12:25:38;24.30;1.00
12700;DHT22;6414;49.570;6.060;2023-06-14T12:28:30;24.40;1.00
12700;DHT22;6414;49.570;6.060;2023-06-14T12:31:12;24.40;1.00
12700;DHT22;6414;49.570;6.060;2023-06-14T12:33:58;24.30;1.00
12700;DHT22;6414;49.570;6.060;2023-06-14T12:36:44;24.40;1.00
12700;DHT22;6414;49.570;6.060;2023-06-14T12:39:30;24.10;1.00
12700;DHT22;6414;49.570;6.060;2023-06-14T12:42:16;24.30;1.00
12700;DHT22;6414;49.570;6.060;2023-06-14T12:45:02;24.20;1.00
12700;DHT22;6414;49.570;6.060;2023-06-14T12:47:48;24.70;1.00
12700;DHT22;6414;49.570;6.060;2023-06-14T12:50:34;24.70;1.00
12700;DHT22;6414;49.570;6.060;2023-06-14T12:53:21;24.60;1.00
12700;DHT22;6414;49.570;6.060;2023-06-14T12:56:07;24.40;1.00
12700;DHT22;6414;49.570;6.060;2023-06-14T12:58:54;24.60;1.00
12700;DHT22;6414;49.570;6.060;2023-06-14T13:01:40;24.60;1.00
12700;DHT22;6414;49.570;6.060;2023-06-14T13:04:26;24.60;1.00
12700;DHT22;6414;49.570;6.060;2023-06-14T13:07:13;24.40;1.00
12700;DHT22;6414;49.570;6.060;2023-06-14T13:09:59;24.40;1.00
12700;DHT22;6414;49.570;6.060;2023-06-14T13:12:45;24.50;1.00
12700;DHT22;6414;49.570;6.060;2023-06-14T13:15:31;24.20;1.00
12700;DHT22;6414;49.570;6.060;2023-06-14T13:18:17;24.40;1.00
12700;DHT22;6414;49.570;6.060;2023-06-14T13:21:03;24.40;1.00
12700;DHT22;6414;49.570;6.060;2023-06-14T13:23:50;24.50;1.00
12700;DHT22;6414;49.570;6.060;2023-06-14T13:26:36;24.60;1.00
12700;DHT22;6414;49.570;6.060;2023-06-14T13:29:25;24.90;1.00
12700;DHT22;6414;49.570;6.060;2023-06-14T13:32:08;25.10;1.00
12700;DHT22;6414;49.570;6.060;2023-06-14T13:34:56;25.10;1.00
12700;DHT22;6414;49.570;6.060;2023-06-14T13:37:42;25.10;1.00
12700;DHT22;6414;49.570;6.060;2023-06-14T13:40:28;24.10;1.00
12700;DHT22;6414;49.570;6.060;2023-06-14T13:43:13;24.40;1.00
12700;DHT22;6414;49.570;6.060;2023-06-14T13:46:00;24.70;1.00
12700;DHT22;6414;49.570;6.060;2023-06-14T13:48:46;24.90;1.00
12700;DHT22;6414;49.570;6.060;2023-06-14T13:51:32;24.90;1.00
12700;DHT22;6414;49.570;6.060;2023-06-14T13:54:22;25.00;1.00
12700;DHT22;6414;49.570;6.060;2023-06-14T13:57:08;25.00;1.00
12700;DHT22;6414;49.570;6.060;2023-06-14T13:59:54;24.80;1.00
12700;DHT22;6414;49.570;6.060;2023-06-14T14:02:40;24.90;1.00
12700;DHT22;6414;49.570;6.060;2023-06-14T14:05:26;25.00;1.00
12700;DHT22;6414;49.570;6.060;2023-06-14T14:08:13;24.80;1.00
12700;DHT22;6414;49.570;6.060;2023-06-14T14:10:59;24.80;1.00
12700;DHT22;6414;49.570;6.060;2023-06-14T14:13:44;24.80;1.00
12700;DHT22;6414;49.570;6.060;2023-06-14T14:16:31;25.00;1.00
12700;DHT22;6414;49.570;6.060;2023-06-14T14:19:17;25.00;1.00
12700;DHT22;6414;49.570;6.060;2023-06-14T14:22:03;24.50;1.00
12700;DHT22;6414;49.570;6.060;2023-06-14T14:24:49;24.50;1.00
12700;DHT22;6414;49.570;6.060;2023-06-14T14:27:34;24.60;1.00
12700;DHT22;6414;49.570;6.060;2023-06-14T14:30:21;24.50;1.00
12700;DHT22;6414;49.570;6.060;2023-06-14T14:33:07;24.60;1.00
12700;DHT22;6414;49.570;6.060;2023-06-14T14:35:54;24.50;1.00
12700;DHT22;6414;49.570;6.060;2023-06-14T14:38:41;24.50;1.00
12700;DHT22;6414;49.570;6.060;2023-06-14T14:41:27;24.50;1.00
12700;DHT22;6414;49.570;6.060;2023-06-14T14:44:12;24.40;1.00
12700;DHT22;6414;49.570;6.060;2023-06-14T14:46:59;24.50;1.00
12700;DHT22;6414;49.570;6.060;2023-06-14T14:49:45;24.40;1.00
12700;DHT22;6414;49.570;6.060;2023-06-14T14:52:31;24.50;1.00
12700;DHT22;6414;49.570;6.060;2023-06-14T14:55:17;24.50;1.00
12700;DHT22;6414;49.570;6.060;2023-06-14T14:58:04;24.60;1.00
12700;DHT22;6414;49.570;6.060;2023-06-14T15:00:50;24.60;1.00
12700;DHT22;6414;49.570;6.060;2023-06-14T15:03:36;24.70;1.00
12700;DHT22;6414;49.570;6.060;2023-06-14T15:06:22;24.80;1.00
12700;DHT22;6414;49.570;6.060;2023-06-14T15:09:08;24.80;1.00
12700;DHT22;6414;49.570;6.060;2023-06-14T15:11:54;24.70;1.00
12700;DHT22;6414;49.570;6.060;2023-06-14T15:14:41;24.30;1.00
12700;DHT22;6414;49.570;6.060;2023-06-14T15:17:27;24.30;1.00
12700;DHT22;6414;49.570;6.060;2023-06-14T15:20:13;24.50;1.00
12700;DHT22;6414;49.570;6.060;2023-06-14T15:22:59;24.60;1.00
12700;DHT22;6414;49.570;6.060;2023-06-14T15:25:46;24.60;1.00
12700;DHT22;6414;49.570;6.060;2023-06-14T15:28:31;24.30;1.00
12700;DHT22;6414;49.570;6.060;2023-06-14T15:31:17;24.40;1.00
12700;DHT22;6414;49.570;6.060;2023-06-14T15:34:04;24.40;1.00
12700;DHT22;6414;49.570;6.060;2023-06-14T15:36:51;24.40;1.00
12700;DHT22;6414;49.570;6.060;2023-06-14T15:39:37;24.40;1.00
12700;DHT22;6414;49.570;6.060;2023-06-14T15:42:24;24.40;1.00
12700;DHT22;6414;49.570;6.060;2023-06-14T15:45:10;24.30;1.00
12700;DHT22;6414;49.570;6.060;2023-06-14T15:47:56;24.20;1.00
12700;DHT22;6414;49.570;6.060;2023-06-14T15:50:42;24.40;1.00
12700;DHT22;6414;49.570;6.060;2023-06-14T15:53:28;24.30;1.00
12700;DHT22;6414;49.570;6.060;2023-06-14T15:56:14;24.40;1.00
12700;DHT22;6414;49.570;6.060;2023-06-14T15:59:01;24.40;1.00
12700;DHT22;6414;49.570;6.060;2023-06-14T16:01:47;24.40;1.00
12700;DHT22;6414;49.570;6.060;2023-06-14T16:04:33;24.30;1.00
12700;DHT22;6414;49.570;6.060;2023-06-14T16:07:20;24.30;1.00
12700;DHT22;6414;49.570;6.060;2023-06-14T16:10:06;24.30;1.00
12700;DHT22;6414;49.570;6.060;2023-06-14T16:12:52;24.40;1.00
12700;DHT22;6414;49.570;6.060;2023-06-14T16:15:38;24.30;1.00
12700;DHT22;6414;49.570;6.060;2023-06-14T16:18:24;24.30;1.00
12700;DHT22;6414;49.570;6.060;2023-06-14T16:21:11;24.30;1.00
12700;DHT22;6414;49.570;6.060;2023-06-14T16:23:56;24.40;1.00
12700;DHT22;6414;49.570;6.060;2023-06-14T16:26:43;24.30;1.00
12700;DHT22;6414;49.570;6.060;2023-06-14T16:29:30;24.30;1.00
12700;DHT22;6414;49.570;6.060;2023-06-14T16:32:16;24.30;1.00
12700;DHT22;6414;49.570;6.060;2023-06-14T16:35:03;24.30;1.00
12700;DHT22;6414;49.570;6.060;2023-06-14T16:37:49;24.20;1.00
12700;DHT22;6414;49.570;6.060;2023-06-14T16:40:36;24.30;1.00
12700;DHT22;6414;49.570;6.060;2023-06-14T16:43:21;24.30;1.00
12700;DHT22;6414;49.570;6.060;2023-06-14T16:46:08;24.00;1.00
12700;DHT22;6414;49.570;6.060;2023-06-14T16:48:55;24.00;1.00
12700;DHT22;6414;49.570;6.060;2023-06-14T16:51:40;24.00;1.00
12700;DHT22;6414;49.570;6.060;2023-06-14T16:54:27;24.00;1.00
12700;DHT22;6414;49.570;6.060;2023-06-14T16:57:13;24.00;1.00
12700;DHT22;6414;49.570;6.060;2023-06-14T17:00:00;23.90;1.00
12700;DHT22;6414;49.570;6.060;2023-06-14T17:02:45;23.80;1.00
12700;DHT22;6414;49.570;6.060;2023-06-14T17:05:32;23.80;1.00
12700;DHT22;6414;49.570;6.060;2023-06-14T17:08:18;23.80;1.00
12700;DHT22;6414;49.570;6.060;2023-06-14T17:11:05;23.80;1.00
12700;DHT22;6414;49.570;6.060;2023-06-14T17:13:52;23.60;1.00
12700;DHT22;6414;49.570;6.060;2023-06-14T17:16:37;23.60;1.00
12700;DHT22;6414;49.570;6.060;2023-06-14T17:19:24;23.60;1.00
12700;DHT22;6414;49.570;6.060;2023-06-14T17:22:10;23.70;1.00
12700;DHT22;6414;49.570;6.060;2023-06-14T17:24:56;23.60;1.00
12700;DHT22;6414;49.570;6.060;2023-06-14T17:27:42;23.50;1.00
12700;DHT22;6414;49.570;6.060;2023-06-14T17:30:29;23.50;1.00
12700;DHT22;6414;49.570;6.060;2023-06-14T17:33:15;23.40;1.00
12700;DHT22;6414;49.570;6.060;2023-06-14T17:36:01;23.50;1.00
12700;DHT22;6414;49.570;6.060;2023-06-14T17:38:48;23.40;1.00
12700;DHT22;6414;49.570;6.060;2023-06-14T17:41:34;23.40;1.00
12700;DHT22;6414;49.570;6.060;2023-06-14T17:44:20;23.30;1.00
12700;DHT22;6414;49.570;6.060;2023-06-14T17:47:06;23.20;1.00
12700;DHT22;6414;49.570;6.060;2023-06-14T17:49:52;23.10;1.00
12700;DHT22;6414;49.570;6.060;2023-06-14T17:52:38;23.20;1.00
12700;DHT22;6414;49.570;6.060;2023-06-14T17:55:24;23.00;1.00
12700;DHT22;6414;49.570;6.060;2023-06-14T17:58:11;22.90;1.00
12700;DHT22;6414;49.570;6.060;2023-06-14T18:00:57;22.90;1.00
12700;DHT22;6414;49.570;6.060;2023-06-14T18:03:44;22.90;1.00
12700;DHT22;6414;49.570;6.060;2023-06-14T18:06:30;22.90;1.00
12700;DHT22;6414;49.570;6.060;2023-06-14T18:09:16;22.70;1.00
12700;DHT22;6414;49.570;6.060;2023-06-14T18:12:02;22.70;1.00